Sheikhupura Weather



Sheikhupura's Current Weather

Temprature 17o smoke

smoke

Rain: 0 %

Min Temprature17o
Max Temprature17o
Humidity82
Wind Speed2.88 m/h
Sun Rise06:34:40
Sun Set17:59:36
Current Time: 27-Feb-2020 01:27:32
Lat/Lon: 31.71, 73.98




Sheikhupura's Geo Location



Sheikhupura's Weather Forecast

Time Overall Temp Min Temp Max Temp Humidity Wind Speed Rain
27-Feb-2020 (Thu)
02:00:00 overcast clouds 15.360 15.360 16.060 46 2.88 m/h 0 %
05:00:00 overcast clouds 15.610 15.610 16.140 47 2.08 m/h 0 %
08:00:00 overcast clouds 17.530 17.530 17.880 43 2.55 m/h 0 %
11:00:00 scattered clouds 26.470 26.470 26.650 24 1.71 m/h 0 %
14:00:00 clear sky 30.260 30.260 30.260 18 1.47 m/h 0 %
17:00:00 clear sky 28.250 28.250 28.250 22 3.19 m/h 0 %
20:00:00 clear sky 20.380 20.380 20.380 40 3.65 m/h 0 %
23:00:00 clear sky 18.400 18.400 18.400 46 3.28 m/h 0 %
28-Feb-2020 (Fri)
02:00:00 clear sky 16.120 16.120 16.120 55 3.07 m/h 0 %
05:00:00 scattered clouds 15.850 15.850 15.850 55 3.96 m/h 0 %
08:00:00 overcast clouds 18.100 18.100 18.100 47 2.3 m/h 0 %
11:00:00 light rain 26.270 26.270 26.270 29 3.31 m/h 31 %
14:00:00 overcast clouds 29.910 29.910 29.910 22 4.27 m/h 0 %
17:00:00 broken clouds 27.590 27.590 27.590 28 5.82 m/h 0 %
20:00:00 few clouds 20.450 20.450 20.450 48 4.08 m/h 0 %
23:00:00 broken clouds 19.040 19.040 19.040 55 3.88 m/h 0 %
29-Feb-2020 (Sat)
02:00:00 light rain 15.870 15.870 15.870 75 2.99 m/h 88 %
05:00:00 light rain 14.080 14.080 14.080 90 4.04 m/h 181 %
08:00:00 light rain 17.060 17.060 17.060 77 4.29 m/h 50 %
11:00:00 light rain 26.180 26.180 26.180 37 6.83 m/h 13 %
14:00:00 scattered clouds 30.070 30.070 30.070 25 5.46 m/h 0 %
17:00:00 broken clouds 27.410 27.410 27.410 26 4.03 m/h 0 %
20:00:00 broken clouds 18.560 18.560 18.560 59 6.08 m/h 0 %
23:00:00 scattered clouds 16.070 16.070 16.070 72 3.83 m/h 0 %
01-Mar-2020 (Sun)
02:00:00 clear sky 13.560 13.560 13.560 84 2.58 m/h 0 %
05:00:00 clear sky 12.770 12.770 12.770 89 2.78 m/h 0 %
08:00:00 clear sky 16.090 16.090 16.090 72 2.87 m/h 0 %
11:00:00 clear sky 24.480 24.480 24.480 40 3.06 m/h 0 %
14:00:00 clear sky 27.970 27.970 27.970 30 2.78 m/h 0 %
17:00:00 clear sky 26.970 26.970 26.970 32 3.64 m/h 0 %
20:00:00 clear sky 19.690 19.690 19.690 52 3.29 m/h 0 %
23:00:00 clear sky 18.030 18.030 18.030 56 2.36 m/h 0 %
02-Mar-2020 (Mon)
02:00:00 clear sky 16.250 16.250 16.250 62 2.45 m/h 0 %
05:00:00 clear sky 15.060 15.060 15.060 66 1.34 m/h 0 %
08:00:00 clear sky 18.550 18.550 18.550 52 1.08 m/h 0 %
11:00:00 scattered clouds 27.000 27.000 27.000 30 1.66 m/h 0 %
14:00:00 clear sky 29.870 29.870 29.870 19 2 m/h 0 %
17:00:00 clear sky 28.340 28.340 28.340 20 3.13 m/h 0 %
20:00:00 few clouds 19.760 19.760 19.760 42 2.92 m/h 0 %
23:00:00 clear sky 18.140 18.140 18.140 44 1.84 m/h 0 %

Famous Cities (61)